Rechercher aéroport 
image banner adimage banner adimage banner ad
image banner ad

P45 - Mount Pleasant/Scottdale

Situé à Mount Pleasant, United States

ICAO - P45, IATA -

Données fournies par Airmate  

Information générale

Coordonnées: N40°6'27" W79°32'35"
Élévation : 1160 feet MSL.
Variation magnétique : -08° East
Voir autres Aéroports à Pennsylvania

Données opérationnelles

Special qualification required
Heure actuelle UTC:
Heure actuelle locale:
Météo à : KLBE - Arnold Palmer Rgnl ( 22 km )
METAR: KLBE 291347Z 21013G21KT 8SM CLR 22/21 A2999
TAF: KLBE 291126Z 2912/3012 00000KT P6SM BKN120 FM291600 24010G18KT P6SM -SHRA OVC035 TEMPO 2917/2919 3SM TSRA OVC025CB FM292000 24010G20KT P6SM VCTS BKN040CB FM300100 28010KT P6SM BKN040 FM300600 27005KT P6SM BKN020
Voir NOTAMs / SUP AIP / TFR affectant cet aéroport [VIEW]
Fréquences de communication: [VIEW]

Pistes:

Identifiant RWYQFULongueur (ft)Largeur (ft)SurfaceLDA (ft)
0653°2158135GRASS
24233°2158135GRASS
14130°1641175GRASS
32310°1641175GRASS

Coordonnées de l'aéroport

Adresse: Mount Pleasant United States

Autres services d'aviation

Écoles de pilotage

Mt. Pleasant Airport Llc

Mt. Pleasant Airport Llc
n9ug@hotmail.com+1(724)220-5556

Vue satellite de P45